Record high temperature 35.7°C Record low temperature -5.3°C Record high gust 54 mph Record high average 35.8 mph Record daily rain 5.08 in. Record low windchill -10.8°C Record high barometer 1045.9 hPa Record low barometer 970.9 hPa
Daily high pressure 1011.8 mb Daily low pressure 1010.4 mb Daily low windchill 13.2°C Daily high heat index 13.6°C Daily high gust speed 5.0 mph W Daily high average speed 3.2 mph SW
Forecast: increasing clouds with little temp. change.
Weather Data
LAST READING AT TIME: 03:30 DATE: 24 July 2017, time of next update: 03:45
Current WeatherNight time/Dry Current Temperature 13.5°C (56.3°F), Apparent temp 14.1°C
Maximum Temperature (since midnight)13.6°C at: 02:46 Minimum Temperature (since midnight)13.2°C at: 00:00
Average windspeed (ten minute)0.0 mph Wind Direction (ten minute)WSW (247°)
Windchill Temperature 13.5°C Maximum Gust (last hour) 2 mph at: 02:30
Maximum Gust (since midnight) 5 mph at: 00:04 Maximum 1 minute average (since midnight)3.2 mph at: 02:14
Rainfall (last hour)0.00 in. (0.0 mm) Rainfall (since midnight)0.03 in. (0.8 mm) at 02:26
Rainfall This month 1.96 in. (49.8 mm) Rainfall To date this year 11.30 in. (287.1 mm)
Maximum rain per minute (last hour)0.00 in/min Maximum rain per hour (last 6 hours)0.03 in/hour
Yesterdays rainfall 0.20 in DewPoint 11.7°C (Wet Bulb :12.5°C )
Humidity 89 %, Humidex 15.6°C Barometer corrected to msl1010.4 mb
Pressure change -0.2 mb (last hour) Trend (last hour)STEADY
Pressure change (last 12 hours)-2.1 mb Pressure change (last 6 hours)-1.5 mb
Current Indoor Temp. 19.3°C
Current Indoor Hum. 56%
Current solar 0 W/Mē Current UV0.0
Maximum solar (since midnight) 0 W/Mē Maximum UV (since midnight)0.0
Current 00:00 hours of sunshine today, current sky: Night time/Dry
Sunshine hours for the year: 580:51 hrs Sunshine hours for the month: 216:07 hrs
Current evapotranspiration 0.01 inches per day. Yesterday's reading 0.12

This page is updated from recent data collected by a DAVIS VANTAGE PRO weather station Use the Reload or Refresh facility on your browser to retrieve the latest data.


Click here for the last 24 hour graph
Click here for the last 48 hour graph
Click here for the last 72 hour graph
Click here for the month to date graph


Weather report/Warning/Metars

London / Gatwick Airport, United Kingdom (EGKK) 51-09N 000-11W 0M
Jul 23, 2017 - 09:50 PM EDT / 2017.07.24 0150 UTC
Wind: from the SW (220 degrees) at 3 MPH (3 KT):0
Visibility: greater than 7 mile(s):0
Sky conditions: partly cloudy
Temperature: 57 F (14 C)
Dew Point: 55 F (13 C)
Relative Humidity: 93%
Pressure (altimeter): 29.85 in. Hg (1011 hPa)
ob: EGKK 240150Z 22003KT 9999 SCT043 14/13 Q1011
cycle: 2
London City Airport, United Kingdom (EGLC) 51-30N 000-30W
Jul 23, 2017 - 09:50 PM EDT / 2017.07.24 0150 UTC
Wind: from the WSW (240 degrees) at 8 MPH (7 KT):0
Visibility: greater than 7 mile(s):0
Weather: Towering cumulus clouds observed
Temperature: 60 F (16 C)
Dew Point: 57 F (14 C)
Relative Humidity: 87%
Pressure (altimeter): 29.83 in. Hg (1010 hPa)
ob: EGLC 240150Z AUTO 24007KT 9999 //////TCU 16/14 Q1010
cycle: 2
London / Heathrow Airport, United Kingdom (EGLL) 51-29N 000-27W 0M
Jul 23, 2017 - 09:50 PM EDT / 2017.07.24 0150 UTC
Wind: from the WNW (290 degrees) at 5 MPH (4 KT):0
Visibility: greater than 7 mile(s):0
Sky conditions: overcast
Weather: light rain
Temperature: 59 F (15 C)
Dew Point: 55 F (13 C)
Relative Humidity: 87%
Pressure (altimeter): 29.85 in. Hg (1011 hPa)
ob: EGLL 240150Z AUTO 29004KT 9999 -RA OVC035 15/13 Q1011
cycle: 2
Southend-On-Sea , United Kingdom (EGMC) 51-34N 000-42E
Jul 23, 2017 - 09:50 PM EDT / 2017.07.24 0150 UTC
Wind: from the W (270 degrees) at 6 MPH (5 KT):0
Visibility: greater than 7 mile(s):0
Sky conditions: mostly clear
Weather: light rain
Temperature: 57 F (14 C)
Dew Point: 53 F (12 C)
Relative Humidity: 87%
Pressure (altimeter): 29.83 in. Hg (1010 hPa)
ob: EGMC 240150Z 27005KT 9999 -RA FEW009 14/12 Q1010
cycle: 2
Lydd Airport , United Kingdom (EGMD) 50-57N 000-56E
Jul 23, 2017 - 09:50 PM EDT / 2017.07.24 0150 UTC
Wind: from the WNW (290 degrees) at 6 MPH (5 KT):0
Visibility: greater than 7 mile(s):0
Temperature: 57 F (14 C)
Dew Point: 55 F (13 C)
Relative Humidity: 93%
Pressure (altimeter): 29.83 in. Hg (1010 hPa)
ob: EGMD 240150Z AUTO 29005KT 9999 NCD 14/13 Q1010
cycle: 2
Biggin Hill , United Kingdom (EGKB) 51-19N 000-02E
Jul 23, 2017 - 04:20 PM EDT / 2017.07.23 2020 UTC
Wind: from the SSW (200 degrees) at 7 MPH (6 KT):0
Visibility: greater than 7 mile(s):0
Temperature: 57 F (14 C)
Dew Point: 53 F (12 C)
Relative Humidity: 87%
Pressure (altimeter): 29.88 in. Hg (1012 hPa)
ob: EGKB 232020Z 20006KT CAVOK 14/12 Q1012 
cycle: 20
Amundsen-Scott South Pole Station, Antarctica (NZSP) 90-00S 00-00E 2835M
Jul 23, 2017 - 07:50 PM EDT / 2017.07.23 2350 UTC
Wind: from the E (100 degrees) at 13 MPH (11 KT):0
Visibility: 3 mile(s):0
Sky conditions: mostly clear
Weather: ice crystals; mist
Temperature: -72 F (-58 C)
Windchill: -108 F (-78 C):2
Pressure (altimeter): 28.61 in. Hg (968 hPa)
ob: NZSP 232350Z 10011KT 6000 IC BR FEW120 M58/ A2861 RMK CLN AIR 10004KT ALL WNDS GRID 
cycle: 0